sensor_id;sensor_type;location;lat;lon;timestamp;temperature;humidity
68922;DHT22;55959;51.244;5.724;2022-10-17T00:01:50;18.60;72.10
68922;DHT22;55959;51.244;5.724;2022-10-17T00:04:16;18.60;72.20
68922;DHT22;55959;51.244;5.724;2022-10-17T00:06:41;18.60;72.30
68922;DHT22;55959;51.244;5.724;2022-10-17T00:09:07;18.60;72.20
68922;DHT22;55959;51.244;5.724;2022-10-17T00:11:35;18.60;72.10
68922;DHT22;55959;51.244;5.724;2022-10-17T00:14:01;18.60;72.20
68922;DHT22;55959;51.244;5.724;2022-10-17T00:16:30;18.60;72.10
68922;DHT22;55959;51.244;5.724;2022-10-17T00:18:58;18.60;72.20
68922;DHT22;55959;51.244;5.724;2022-10-17T00:21:25;18.60;72.20
68922;DHT22;55959;51.244;5.724;2022-10-17T00:23:52;18.60;72.10
68922;DHT22;55959;51.244;5.724;2022-10-17T00:26:18;18.60;72.10
68922;DHT22;55959;51.244;5.724;2022-10-17T00:28:49;18.60;72.10
68922;DHT22;55959;51.244;5.724;2022-10-17T00:31:17;18.50;72.00
68922;DHT22;55959;51.244;5.724;2022-10-17T00:33:43;18.50;72.00
68922;DHT22;55959;51.244;5.724;2022-10-17T00:36:19;18.50;72.10
68922;DHT22;55959;51.244;5.724;2022-10-17T00:38:51;18.50;72.30
68922;DHT22;55959;51.244;5.724;2022-10-17T00:41:21;18.50;72.30
68922;DHT22;55959;51.244;5.724;2022-10-17T00:46:28;18.50;72.50
68922;DHT22;55959;51.244;5.724;2022-10-17T00:48:56;18.50;72.50
68922;DHT22;55959;51.244;5.724;2022-10-17T00:51:42;18.50;72.60
68922;DHT22;55959;51.244;5.724;2022-10-17T00:54:12;18.50;72.70
68922;DHT22;55959;51.244;5.724;2022-10-17T00:56:39;18.50;72.70
68922;DHT22;55959;51.244;5.724;2022-10-17T00:59:07;18.50;72.70
68922;DHT22;55959;51.244;5.724;2022-10-17T01:01:34;18.50;72.80
68922;DHT22;55959;51.244;5.724;2022-10-17T01:04:00;18.50;72.70
68922;DHT22;55959;51.244;5.724;2022-10-17T01:06:26;18.50;72.70
68922;DHT22;55959;51.244;5.724;2022-10-17T01:08:52;18.50;72.70
68922;DHT22;55959;51.244;5.724;2022-10-17T01:11:32;18.50;72.60
68922;DHT22;55959;51.244;5.724;2022-10-17T01:16:47;18.50;72.80
68922;DHT22;55959;51.244;5.724;2022-10-17T01:22:35;18.50;73.00
68922;DHT22;55959;51.244;5.724;2022-10-17T01:36:46;18.40;73.00
68922;DHT22;55959;51.244;5.724;2022-10-17T01:48:03;18.30;73.10
68922;DHT22;55959;51.244;5.724;2022-10-17T01:50:35;18.30;73.20
68922;DHT22;55959;51.244;5.724;2022-10-17T01:53:15;18.30;73.30
68922;DHT22;55959;51.244;5.724;2022-10-17T01:55:45;18.30;73.40
68922;DHT22;55959;51.244;5.724;2022-10-17T01:58:17;18.30;73.30
68922;DHT22;55959;51.244;5.724;2022-10-17T02:00:47;18.30;73.30
68922;DHT22;55959;51.244;5.724;2022-10-17T02:03:17;18.30;73.30
68922;DHT22;55959;51.244;5.724;2022-10-17T02:05:44;18.40;73.40
68922;DHT22;55959;51.244;5.724;2022-10-17T02:08:10;18.30;73.20
68922;DHT22;55959;51.244;5.724;2022-10-17T02:10:59;18.30;73.20
68922;DHT22;55959;51.244;5.724;2022-10-17T02:26:09;18.20;73.20
68922;DHT22;55959;51.244;5.724;2022-10-17T02:28:44;18.20;73.30
68922;DHT22;55959;51.244;5.724;2022-10-17T02:31:13;18.20;73.40
68922;DHT22;55959;51.244;5.724;2022-10-17T02:33:57;18.20;73.40
68922;DHT22;55959;51.244;5.724;2022-10-17T02:36:45;18.20;73.50
68922;DHT22;55959;51.244;5.724;2022-10-17T02:39:15;18.20;73.50
68922;DHT22;55959;51.244;5.724;2022-10-17T02:41:42;18.20;73.50
68922;DHT22;55959;51.244;5.724;2022-10-17T02:44:10;18.10;73.40
68922;DHT22;55959;51.244;5.724;2022-10-17T02:46:37;18.10;73.30
68922;DHT22;55959;51.244;5.724;2022-10-17T02:49:07;18.20;73.40
68922;DHT22;55959;51.244;5.724;2022-10-17T02:51:49;18.10;73.30
68922;DHT22;55959;51.244;5.724;2022-10-17T02:57:06;18.10;73.30
68922;DHT22;55959;51.244;5.724;2022-10-17T02:59:54;18.10;73.30
68922;DHT22;55959;51.244;5.724;2022-10-17T03:02:22;18.10;73.30
68922;DHT22;55959;51.244;5.724;2022-10-17T03:04:49;18.10;73.30
68922;DHT22;55959;51.244;5.724;2022-10-17T03:07:15;18.10;73.30
68922;DHT22;55959;51.244;5.724;2022-10-17T03:09:40;18.10;73.30
68922;DHT22;55959;51.244;5.724;2022-10-17T03:12:06;18.10;73.30
68922;DHT22;55959;51.244;5.724;2022-10-17T03:14:32;18.10;73.50
68922;DHT22;55959;51.244;5.724;2022-10-17T03:16:57;18.00;73.50
68922;DHT22;55959;51.244;5.724;2022-10-17T03:19:23;18.10;73.70
68922;DHT22;55959;51.244;5.724;2022-10-17T03:21:49;18.00;73.70
68922;DHT22;55959;51.244;5.724;2022-10-17T03:24:15;18.00;73.80
68922;DHT22;55959;51.244;5.724;2022-10-17T03:26:40;18.00;73.90
68922;DHT22;55959;51.244;5.724;2022-10-17T03:29:06;18.00;74.00
68922;DHT22;55959;51.244;5.724;2022-10-17T03:31:32;18.00;74.10
68922;DHT22;55959;51.244;5.724;2022-10-17T03:33:57;18.00;74.10
68922;DHT22;55959;51.244;5.724;2022-10-17T03:36:23;18.00;74.10
68922;DHT22;55959;51.244;5.724;2022-10-17T03:38:52;18.00;74.10
68922;DHT22;55959;51.244;5.724;2022-10-17T03:41:19;18.00;74.20
68922;DHT22;55959;51.244;5.724;2022-10-17T03:43:44;18.00;74.20
68922;DHT22;55959;51.244;5.724;2022-10-17T03:46:10;18.00;74.20
68922;DHT22;55959;51.244;5.724;2022-10-17T03:48:36;18.00;74.20
68922;DHT22;55959;51.244;5.724;2022-10-17T03:51:05;18.00;74.20
68922;DHT22;55959;51.244;5.724;2022-10-17T03:53:33;18.00;74.20
68922;DHT22;55959;51.244;5.724;2022-10-17T03:56:31;18.00;74.10
68922;DHT22;55959;51.244;5.724;2022-10-17T03:58:57;18.00;74.20
68922;DHT22;55959;51.244;5.724;2022-10-17T04:01:22;18.00;74.30
68922;DHT22;55959;51.244;5.724;2022-10-17T04:03:53;18.00;74.30
68922;DHT22;55959;51.244;5.724;2022-10-17T04:06:21;18.00;74.30
68922;DHT22;55959;51.244;5.724;2022-10-17T04:08:48;18.00;74.20
68922;DHT22;55959;51.244;5.724;2022-10-17T04:11:17;18.00;74.20
68922;DHT22;55959;51.244;5.724;2022-10-17T04:13:44;18.00;74.20
68922;DHT22;55959;51.244;5.724;2022-10-17T04:16:15;18.00;74.10
68922;DHT22;55959;51.244;5.724;2022-10-17T04:18:42;18.00;74.10
68922;DHT22;55959;51.244;5.724;2022-10-17T04:21:10;18.00;74.10
68922;DHT22;55959;51.244;5.724;2022-10-17T04:23:37;18.00;74.20
68922;DHT22;55959;51.244;5.724;2022-10-17T04:26:03;18.00;74.20
68922;DHT22;55959;51.244;5.724;2022-10-17T04:28:31;18.00;74.30
68922;DHT22;55959;51.244;5.724;2022-10-17T04:31:01;18.00;74.40
68922;DHT22;55959;51.244;5.724;2022-10-17T04:33:31;18.00;74.50
68922;DHT22;55959;51.244;5.724;2022-10-17T04:36:11;18.00;74.60
68922;DHT22;55959;51.244;5.724;2022-10-17T04:38:38;18.00;74.70
68922;DHT22;55959;51.244;5.724;2022-10-17T04:41:09;18.00;74.70
68922;DHT22;55959;51.244;5.724;2022-10-17T04:43:37;18.00;74.90
68922;DHT22;55959;51.244;5.724;2022-10-17T04:46:06;18.10;75.00
68922;DHT22;55959;51.244;5.724;2022-10-17T04:48:33;18.10;75.10
68922;DHT22;55959;51.244;5.724;2022-10-17T04:51:06;18.10;75.20
68922;DHT22;55959;51.244;5.724;2022-10-17T04:53:36;18.10;75.50
68922;DHT22;55959;51.244;5.724;2022-10-17T04:56:11;18.10;75.50
68922;DHT22;55959;51.244;5.724;2022-10-17T04:58:39;18.10;75.70
68922;DHT22;55959;51.244;5.724;2022-10-17T05:01:16;18.10;75.80
68922;DHT22;55959;51.244;5.724;2022-10-17T05:03:43;18.20;76.20
68922;DHT22;55959;51.244;5.724;2022-10-17T05:06:23;18.20;76.30
68922;DHT22;55959;51.244;5.724;2022-10-17T05:08:50;18.20;76.40
68922;DHT22;55959;51.244;5.724;2022-10-17T05:11:22;18.20;76.50
68922;DHT22;55959;51.244;5.724;2022-10-17T05:13:54;18.20;76.70
68922;DHT22;55959;51.244;5.724;2022-10-17T05:16:22;18.30;77.00
68922;DHT22;55959;51.244;5.724;2022-10-17T05:18:50;18.30;77.20
68922;DHT22;55959;51.244;5.724;2022-10-17T05:21:17;18.30;77.30
68922;DHT22;55959;51.244;5.724;2022-10-17T05:23:43;18.30;77.30
68922;DHT22;55959;51.244;5.724;2022-10-17T05:26:09;18.40;77.40
68922;DHT22;55959;51.244;5.724;2022-10-17T05:28:35;18.40;77.40
68922;DHT22;55959;51.244;5.724;2022-10-17T05:31:05;18.50;77.50
68922;DHT22;55959;51.244;5.724;2022-10-17T05:33:32;18.50;77.50
68922;DHT22;55959;51.244;5.724;2022-10-17T05:35:59;18.50;77.50
68922;DHT22;55959;51.244;5.724;2022-10-17T05:38:26;18.50;77.50
68922;DHT22;55959;51.244;5.724;2022-10-17T05:40:57;18.50;77.40
68922;DHT22;55959;51.244;5.724;2022-10-17T05:43:23;18.60;77.70
68922;DHT22;55959;51.244;5.724;2022-10-17T05:45:49;18.60;77.70
68922;DHT22;55959;51.244;5.724;2022-10-17T05:48:14;18.60;77.70
68922;DHT22;55959;51.244;5.724;2022-10-17T05:50:40;18.70;77.70
68922;DHT22;55959;51.244;5.724;2022-10-17T05:53:06;18.70;77.70
68922;DHT22;55959;51.244;5.724;2022-10-17T05:55:32;18.70;77.60
68922;DHT22;55959;51.244;5.724;2022-10-17T05:57:59;18.70;77.50
68922;DHT22;55959;51.244;5.724;2022-10-17T06:00:25;18.80;77.50
68922;DHT22;55959;51.244;5.724;2022-10-17T06:02:51;18.80;77.50
68922;DHT22;55959;51.244;5.724;2022-10-17T06:05:17;18.80;77.50
68922;DHT22;55959;51.244;5.724;2022-10-17T06:07:43;18.80;77.30
68922;DHT22;55959;51.244;5.724;2022-10-17T06:10:09;18.90;77.20
68922;DHT22;55959;51.244;5.724;2022-10-17T06:12:41;18.90;77.20
68922;DHT22;55959;51.244;5.724;2022-10-17T06:15:07;18.90;77.10
68922;DHT22;55959;51.244;5.724;2022-10-17T06:17:34;18.90;77.10
68922;DHT22;55959;51.244;5.724;2022-10-17T06:19:59;19.00;77.20
68922;DHT22;55959;51.244;5.724;2022-10-17T06:22:25;19.00;77.20
68922;DHT22;55959;51.244;5.724;2022-10-17T06:24:51;19.00;77.20
68922;DHT22;55959;51.244;5.724;2022-10-17T06:27:18;19.00;77.30
68922;DHT22;55959;51.244;5.724;2022-10-17T06:29:45;19.00;77.30
68922;DHT22;55959;51.244;5.724;2022-10-17T06:32:11;19.00;77.30
68922;DHT22;55959;51.244;5.724;2022-10-17T06:34:37;19.10;77.40
68922;DHT22;55959;51.244;5.724;2022-10-17T06:37:02;19.10;77.40
68922;DHT22;55959;51.244;5.724;2022-10-17T06:39:28;19.10;77.30
68922;DHT22;55959;51.244;5.724;2022-10-17T06:41:59;19.10;77.30
68922;DHT22;55959;51.244;5.724;2022-10-17T06:44:25;19.20;77.20
68922;DHT22;55959;51.244;5.724;2022-10-17T06:46:55;19.20;77.20
68922;DHT22;55959;51.244;5.724;2022-10-17T06:49:21;19.20;77.10
68922;DHT22;55959;51.244;5.724;2022-10-17T06:51:47;19.30;77.00
68922;DHT22;55959;51.244;5.724;2022-10-17T06:54:12;19.30;77.00
68922;DHT22;55959;51.244;5.724;2022-10-17T06:56:38;19.30;76.90
68922;DHT22;55959;51.244;5.724;2022-10-17T06:59:04;19.30;76.80
68922;DHT22;55959;51.244;5.724;2022-10-17T07:01:30;19.30;76.60
68922;DHT22;55959;51.244;5.724;2022-10-17T07:03:56;19.40;76.60
68922;DHT22;55959;51.244;5.724;2022-10-17T07:06:22;19.40;76.70
68922;DHT22;55959;51.244;5.724;2022-10-17T07:08:49;19.40;76.70
68922;DHT22;55959;51.244;5.724;2022-10-17T07:11:17;19.40;76.70
68922;DHT22;55959;51.244;5.724;2022-10-17T07:13:44;19.50;76.60
68922;DHT22;55959;51.244;5.724;2022-10-17T07:16:11;19.50;76.60
68922;DHT22;55959;51.244;5.724;2022-10-17T07:18:39;19.50;76.50
68922;DHT22;55959;51.244;5.724;2022-10-17T07:21:06;19.50;76.40
68922;DHT22;55959;51.244;5.724;2022-10-17T07:23:35;19.50;76.40
68922;DHT22;55959;51.244;5.724;2022-10-17T07:26:07;19.60;76.40
68922;DHT22;55959;51.244;5.724;2022-10-17T07:28:35;19.60;76.40
68922;DHT22;55959;51.244;5.724;2022-10-17T07:31:11;19.60;77.20
68922;DHT22;55959;51.244;5.724;2022-10-17T07:33:40;19.60;76.40
68922;DHT22;55959;51.244;5.724;2022-10-17T07:36:07;19.60;76.40
68922;DHT22;55959;51.244;5.724;2022-10-17T07:38:33;19.70;76.50
68922;DHT22;55959;51.244;5.724;2022-10-17T07:41:01;19.70;76.50
68922;DHT22;55959;51.244;5.724;2022-10-17T07:43:29;19.70;76.60
68922;DHT22;55959;51.244;5.724;2022-10-17T07:45:54;19.80;76.60
68922;DHT22;55959;51.244;5.724;2022-10-17T07:48:22;19.80;76.60
68922;DHT22;55959;51.244;5.724;2022-10-17T07:50:49;19.80;76.60
68922;DHT22;55959;51.244;5.724;2022-10-17T07:53:15;19.90;76.60
68922;DHT22;55959;51.244;5.724;2022-10-17T07:55:41;19.90;76.60
68922;DHT22;55959;51.244;5.724;2022-10-17T07:58:09;20.00;76.70
68922;DHT22;55959;51.244;5.724;2022-10-17T08:00:38;20.10;76.60
68922;DHT22;55959;51.244;5.724;2022-10-17T08:03:04;20.10;76.60
68922;DHT22;55959;51.244;5.724;2022-10-17T08:05:31;20.20;76.50
68922;DHT22;55959;51.244;5.724;2022-10-17T08:07:58;20.30;76.40
68922;DHT22;55959;51.244;5.724;2022-10-17T08:10:24;20.30;76.20
68922;DHT22;55959;51.244;5.724;2022-10-17T08:12:54;20.40;76.00
68922;DHT22;55959;51.244;5.724;2022-10-17T08:15:21;20.40;75.60
68922;DHT22;55959;51.244;5.724;2022-10-17T08:17:48;20.50;75.50
68922;DHT22;55959;51.244;5.724;2022-10-17T08:20:14;20.60;75.40
68922;DHT22;55959;51.244;5.724;2022-10-17T08:22:40;20.60;75.00
68922;DHT22;55959;51.244;5.724;2022-10-17T08:25:06;20.70;74.80
68922;DHT22;55959;51.244;5.724;2022-10-17T08:27:33;20.70;74.30
68922;DHT22;55959;51.244;5.724;2022-10-17T08:29:58;20.80;74.20
68922;DHT22;55959;51.244;5.724;2022-10-17T08:32:26;20.80;74.20
68922;DHT22;55959;51.244;5.724;2022-10-17T08:34:53;20.90;74.00
68922;DHT22;55959;51.244;5.724;2022-10-17T08:37:20;20.90;73.80
68922;DHT22;55959;51.244;5.724;2022-10-17T08:39:47;21.00;73.60
68922;DHT22;55959;51.244;5.724;2022-10-17T08:48:13;21.10;73.30
68922;DHT22;55959;51.244;5.724;2022-10-17T08:51:00;21.10;73.20
68922;DHT22;55959;51.244;5.724;2022-10-17T08:53:54;21.10;73.10
68922;DHT22;55959;51.244;5.724;2022-10-17T08:56:25;21.20;72.80
68922;DHT22;55959;51.244;5.724;2022-10-17T08:59:26;21.20;72.50
68922;DHT22;55959;51.244;5.724;2022-10-17T09:02:00;21.20;72.40
68922;DHT22;55959;51.244;5.724;2022-10-17T09:05:13;21.20;72.20
68922;DHT22;55959;51.244;5.724;2022-10-17T09:08:02;21.20;72.20
68922;DHT22;55959;51.244;5.724;2022-10-17T09:10:54;21.30;72.00
68922;DHT22;55959;51.244;5.724;2022-10-17T09:13:56;21.30;71.80
68922;DHT22;55959;51.244;5.724;2022-10-17T09:16:35;21.30;71.60
68922;DHT22;55959;51.244;5.724;2022-10-17T09:19:24;21.30;71.50
68922;DHT22;55959;51.244;5.724;2022-10-17T09:22:00;21.30;71.40
68922;DHT22;55959;51.244;5.724;2022-10-17T09:24:37;21.40;71.40
68922;DHT22;55959;51.244;5.724;2022-10-17T09:32:57;21.40;71.40
68922;DHT22;55959;51.244;5.724;2022-10-17T09:35:24;21.40;71.40
68922;DHT22;55959;51.244;5.724;2022-10-17T09:37:52;21.40;71.30
68922;DHT22;55959;51.244;5.724;2022-10-17T09:40:31;21.50;71.40
68922;DHT22;55959;51.244;5.724;2022-10-17T09:43:00;21.50;71.40
68922;DHT22;55959;51.244;5.724;2022-10-17T09:45:28;21.40;71.40
68922;DHT22;55959;51.244;5.724;2022-10-17T09:48:09;21.50;71.30
68922;DHT22;55959;51.244;5.724;2022-10-17T09:50:38;21.50;71.40
68922;DHT22;55959;51.244;5.724;2022-10-17T09:53:19;21.50;71.30
68922;DHT22;55959;51.244;5.724;2022-10-17T09:55:52;21.50;71.20
68922;DHT22;55959;51.244;5.724;2022-10-17T09:58:22;21.50;71.20
68922;DHT22;55959;51.244;5.724;2022-10-17T10:00:49;21.50;71.00
68922;DHT22;55959;51.244;5.724;2022-10-17T10:03:25;21.60;71.00
68922;DHT22;55959;51.244;5.724;2022-10-17T10:06:11;21.50;70.80
68922;DHT22;55959;51.244;5.724;2022-10-17T10:08:52;21.60;71.00
68922;DHT22;55959;51.244;5.724;2022-10-17T10:11:25;21.50;71.00
68922;DHT22;55959;51.244;5.724;2022-10-17T10:14:14;21.60;71.20
68922;DHT22;55959;51.244;5.724;2022-10-17T10:19:53;21.60;71.50
68922;DHT22;55959;51.244;5.724;2022-10-17T10:22:20;21.50;71.50
68922;DHT22;55959;51.244;5.724;2022-10-17T10:25:13;21.60;71.60
68922;DHT22;55959;51.244;5.724;2022-10-17T10:27:42;21.50;71.60
68922;DHT22;55959;51.244;5.724;2022-10-17T10:30:22;21.60;71.70
68922;DHT22;55959;51.244;5.724;2022-10-17T10:32:52;21.50;72.60
68922;DHT22;55959;51.244;5.724;2022-10-17T10:35:21;21.60;71.80
68922;DHT22;55959;51.244;5.724;2022-10-17T10:37:55;21.50;71.80
68922;DHT22;55959;51.244;5.724;2022-10-17T10:40:43;21.60;72.80
68922;DHT22;55959;51.244;5.724;2022-10-17T10:43:21;21.60;72.00
68922;DHT22;55959;51.244;5.724;2022-10-17T10:45:50;21.60;72.00
68922;DHT22;55959;51.244;5.724;2022-10-17T10:50:51;21.50;72.00
68922;DHT22;55959;51.244;5.724;2022-10-17T10:56:32;21.60;72.20
68922;DHT22;55959;51.244;5.724;2022-10-17T11:06:51;21.50;73.20
68922;DHT22;55959;51.244;5.724;2022-10-17T11:09:30;21.50;72.40
68922;DHT22;55959;51.244;5.724;2022-10-17T11:18:05;21.50;72.50
68922;DHT22;55959;51.244;5.724;2022-10-17T11:23:19;21.50;72.60
68922;DHT22;55959;51.244;5.724;2022-10-17T11:26:15;21.50;72.80
68922;DHT22;55959;51.244;5.724;2022-10-17T11:28:51;21.40;72.80
68922;DHT22;55959;51.244;5.724;2022-10-17T11:31:23;21.50;72.90
68922;DHT22;55959;51.244;5.724;2022-10-17T11:33:55;21.50;72.80
68922;DHT22;55959;51.244;5.724;2022-10-17T11:36:31;21.50;72.80
68922;DHT22;55959;51.244;5.724;2022-10-17T11:39:04;21.50;72.80
68922;DHT22;55959;51.244;5.724;2022-10-17T11:44:36;21.50;72.90
68922;DHT22;55959;51.244;5.724;2022-10-17T11:47:24;21.50;72.90
68922;DHT22;55959;51.244;5.724;2022-10-17T11:52:45;21.50;72.90
68922;DHT22;55959;51.244;5.724;2022-10-17T11:55:22;21.50;73.00
68922;DHT22;55959;51.244;5.724;2022-10-17T12:11:54;21.50;73.00
68922;DHT22;55959;51.244;5.724;2022-10-17T12:14:43;21.50;72.90
68922;DHT22;55959;51.244;5.724;2022-10-17T12:17:31;21.60;73.00
68922;DHT22;55959;51.244;5.724;2022-10-17T12:23:02;21.50;72.90
68922;DHT22;55959;51.244;5.724;2022-10-17T12:25:35;21.60;73.00
68922;DHT22;55959;51.244;5.724;2022-10-17T12:28:26;21.60;73.90
68922;DHT22;55959;51.244;5.724;2022-10-17T12:55:12;21.70;73.30
68922;DHT22;55959;51.244;5.724;2022-10-17T12:58:00;21.70;73.30
68922;DHT22;55959;51.244;5.724;2022-10-17T13:03:21;21.70;73.30
68922;DHT22;55959;51.244;5.724;2022-10-17T13:05:51;21.70;73.40
68922;DHT22;55959;51.244;5.724;2022-10-17T13:08:43;21.80;73.50
68922;DHT22;55959;51.244;5.724;2022-10-17T13:11:09;21.80;73.50
68922;DHT22;55959;51.244;5.724;2022-10-17T13:13:51;21.80;73.40
68922;DHT22;55959;51.244;5.724;2022-10-17T13:16:36;21.80;74.40
68922;DHT22;55959;51.244;5.724;2022-10-17T13:19:12;21.80;74.40
68922;DHT22;55959;51.244;5.724;2022-10-17T13:21:49;21.80;73.50
68922;DHT22;55959;51.244;5.724;2022-10-17T13:24:36;21.80;73.60
68922;DHT22;55959;51.244;5.724;2022-10-17T13:27:05;21.80;73.60
68922;DHT22;55959;51.244;5.724;2022-10-17T13:29:45;21.80;73.60
68922;DHT22;55959;51.244;5.724;2022-10-17T13:32:11;21.80;73.60
68922;DHT22;55959;51.244;5.724;2022-10-17T13:34:37;21.80;73.60
68922;DHT22;55959;51.244;5.724;2022-10-17T13:37:09;21.80;73.50
68922;DHT22;55959;51.244;5.724;2022-10-17T13:39:41;21.80;73.60
68922;DHT22;55959;51.244;5.724;2022-10-17T13:42:25;21.90;73.60
68922;DHT22;55959;51.244;5.724;2022-10-17T13:44:53;21.90;73.60
68922;DHT22;55959;51.244;5.724;2022-10-17T13:47:31;21.80;73.50
68922;DHT22;55959;51.244;5.724;2022-10-17T13:49:59;21.80;73.60
68922;DHT22;55959;51.244;5.724;2022-10-17T13:52:27;21.90;73.60
68922;DHT22;55959;51.244;5.724;2022-10-17T13:54:54;21.90;73.60
68922;DHT22;55959;51.244;5.724;2022-10-17T13:57:31;21.90;73.60
68922;DHT22;55959;51.244;5.724;2022-10-17T13:59:57;21.90;73.60
68922;DHT22;55959;51.244;5.724;2022-10-17T14:02:27;21.90;73.60
68922;DHT22;55959;51.244;5.724;2022-10-17T14:05:14;21.90;73.60
68922;DHT22;55959;51.244;5.724;2022-10-17T14:07:58;21.90;73.50
68922;DHT22;55959;51.244;5.724;2022-10-17T14:10:33;21.90;73.50
68922;DHT22;55959;51.244;5.724;2022-10-17T14:13:02;21.90;73.60
68922;DHT22;55959;51.244;5.724;2022-10-17T14:15:31;21.90;73.80
68922;DHT22;55959;51.244;5.724;2022-10-17T14:18:01;21.90;73.70
68922;DHT22;55959;51.244;5.724;2022-10-17T14:20:28;21.80;73.80
68922;DHT22;55959;51.244;5.724;2022-10-17T14:22:55;21.80;73.80
68922;DHT22;55959;51.244;5.724;2022-10-17T14:27:54;21.90;74.00
68922;DHT22;55959;51.244;5.724;2022-10-17T14:32:59;21.80;74.20
68922;DHT22;55959;51.244;5.724;2022-10-17T14:35:29;21.80;74.20
68922;DHT22;55959;51.244;5.724;2022-10-17T14:38:00;21.80;74.30
68922;DHT22;55959;51.244;5.724;2022-10-17T14:40:29;21.80;74.30
68922;DHT22;55959;51.244;5.724;2022-10-17T14:42:59;21.80;74.40
68922;DHT22;55959;51.244;5.724;2022-10-17T14:45:34;21.80;74.40
68922;DHT22;55959;51.244;5.724;2022-10-17T14:48:16;21.80;74.40
68922;DHT22;55959;51.244;5.724;2022-10-17T14:51:10;21.80;74.40
68922;DHT22;55959;51.244;5.724;2022-10-17T14:53:40;21.80;74.40
68922;DHT22;55959;51.244;5.724;2022-10-17T14:56:23;21.80;74.30
68922;DHT22;55959;51.244;5.724;2022-10-17T14:58:57;21.80;74.30
68922;DHT22;55959;51.244;5.724;2022-10-17T15:01:23;21.80;74.20
68922;DHT22;55959;51.244;5.724;2022-10-17T15:03:49;21.80;74.20
68922;DHT22;55959;51.244;5.724;2022-10-17T15:06:26;21.80;74.10
68922;DHT22;55959;51.244;5.724;2022-10-17T15:08:53;21.80;74.00
68922;DHT22;55959;51.244;5.724;2022-10-17T15:11:19;21.80;74.00
68922;DHT22;55959;51.244;5.724;2022-10-17T15:13:45;21.80;74.00
68922;DHT22;55959;51.244;5.724;2022-10-17T15:16:25;21.80;74.10
68922;DHT22;55959;51.244;5.724;2022-10-17T15:18:55;21.70;74.10
68922;DHT22;55959;51.244;5.724;2022-10-17T15:21:22;21.70;74.10
68922;DHT22;55959;51.244;5.724;2022-10-17T15:23:49;21.70;74.20
68922;DHT22;55959;51.244;5.724;2022-10-17T15:28:47;21.70;74.30
68922;DHT22;55959;51.244;5.724;2022-10-17T15:31:21;21.70;74.30
68922;DHT22;55959;51.244;5.724;2022-10-17T15:33:47;21.70;74.40
68922;DHT22;55959;51.244;5.724;2022-10-17T15:38:55;21.70;74.50
68922;DHT22;55959;51.244;5.724;2022-10-17T15:41:25;21.70;74.50
68922;DHT22;55959;51.244;5.724;2022-10-17T15:43:54;21.70;74.50
68922;DHT22;55959;51.244;5.724;2022-10-17T15:46:26;21.70;74.60
68922;DHT22;55959;51.244;5.724;2022-10-17T15:48:54;21.70;74.60
68922;DHT22;55959;51.244;5.724;2022-10-17T15:51:21;21.60;74.50
68922;DHT22;55959;51.244;5.724;2022-10-17T15:53:47;21.70;74.60
68922;DHT22;55959;51.244;5.724;2022-10-17T15:56:22;21.60;74.60
68922;DHT22;55959;51.244;5.724;2022-10-17T15:58:49;21.70;74.60
68922;DHT22;55959;51.244;5.724;2022-10-17T16:01:34;21.60;74.60
68922;DHT22;55959;51.244;5.724;2022-10-17T16:04:00;21.60;74.50
68922;DHT22;55959;51.244;5.724;2022-10-17T16:06:26;21.60;74.50
68922;DHT22;55959;51.244;5.724;2022-10-17T16:08:51;21.60;74.60
68922;DHT22;55959;51.244;5.724;2022-10-17T16:11:26;21.60;74.50
68922;DHT22;55959;51.244;5.724;2022-10-17T16:13:58;21.60;74.60
68922;DHT22;55959;51.244;5.724;2022-10-17T16:16:26;21.60;74.60
68922;DHT22;55959;51.244;5.724;2022-10-17T16:18:52;21.60;74.60
68922;DHT22;55959;51.244;5.724;2022-10-17T16:21:20;21.60;74.60
68922;DHT22;55959;51.244;5.724;2022-10-17T16:23:49;21.60;74.60
68922;DHT22;55959;51.244;5.724;2022-10-17T16:26:15;21.60;74.50
68922;DHT22;55959;51.244;5.724;2022-10-17T16:28:42;21.60;74.50
68922;DHT22;55959;51.244;5.724;2022-10-17T16:31:29;21.50;74.40
68922;DHT22;55959;51.244;5.724;2022-10-17T16:33:58;21.50;74.40
68922;DHT22;55959;51.244;5.724;2022-10-17T16:36:24;21.50;74.40
68922;DHT22;55959;51.244;5.724;2022-10-17T16:38:50;21.50;74.40
68922;DHT22;55959;51.244;5.724;2022-10-17T16:41:26;21.50;74.40
68922;DHT22;55959;51.244;5.724;2022-10-17T16:43:57;21.50;74.50
68922;DHT22;55959;51.244;5.724;2022-10-17T16:46:25;21.50;74.40
68922;DHT22;55959;51.244;5.724;2022-10-17T16:48:52;21.40;74.40
68922;DHT22;55959;51.244;5.724;2022-10-17T16:51:19;21.50;74.60
68922;DHT22;55959;51.244;5.724;2022-10-17T16:53:47;21.40;74.40
68922;DHT22;55959;51.244;5.724;2022-10-17T16:56:17;21.40;74.40
68922;DHT22;55959;51.244;5.724;2022-10-17T16:58:44;21.40;74.40
68922;DHT22;55959;51.244;5.724;2022-10-17T17:01:13;21.40;74.30
68922;DHT22;55959;51.244;5.724;2022-10-17T17:03:43;21.40;74.20
68922;DHT22;55959;51.244;5.724;2022-10-17T17:06:14;21.40;74.20
68922;DHT22;55959;51.244;5.724;2022-10-17T17:08:42;21.40;74.20
68922;DHT22;55959;51.244;5.724;2022-10-17T17:11:12;21.40;74.20
68922;DHT22;55959;51.244;5.724;2022-10-17T17:13:39;21.40;74.20
68922;DHT22;55959;51.244;5.724;2022-10-17T17:16:11;21.30;74.10
68922;DHT22;55959;51.244;5.724;2022-10-17T17:18:39;21.40;74.20
68922;DHT22;55959;51.244;5.724;2022-10-17T17:21:06;21.30;74.20
68922;DHT22;55959;51.244;5.724;2022-10-17T17:23:38;21.30;74.10
68922;DHT22;55959;51.244;5.724;2022-10-17T17:26:17;21.30;74.10
68922;DHT22;55959;51.244;5.724;2022-10-17T17:28:44;21.30;74.20
68922;DHT22;55959;51.244;5.724;2022-10-17T17:31:22;21.20;74.20
68922;DHT22;55959;51.244;5.724;2022-10-17T17:33:50;21.20;74.10
68922;DHT22;55959;51.244;5.724;2022-10-17T17:36:22;21.20;74.20
68922;DHT22;55959;51.244;5.724;2022-10-17T17:38:50;21.20;74.20
68922;DHT22;55959;51.244;5.724;2022-10-17T17:41:19;21.20;74.20
68922;DHT22;55959;51.244;5.724;2022-10-17T17:43:46;21.20;74.20
68922;DHT22;55959;51.244;5.724;2022-10-17T17:46:15;21.10;74.20
68922;DHT22;55959;51.244;5.724;2022-10-17T17:48:43;21.10;74.20
68922;DHT22;55959;51.244;5.724;2022-10-17T17:51:12;21.10;74.20
68922;DHT22;55959;51.244;5.724;2022-10-17T17:53:39;21.10;74.10
68922;DHT22;55959;51.244;5.724;2022-10-17T17:56:17;21.10;74.20
68922;DHT22;55959;51.244;5.724;2022-10-17T17:59:01;21.00;74.10
68922;DHT22;55959;51.244;5.724;2022-10-17T18:01:29;21.00;74.10
68922;DHT22;55959;51.244;5.724;2022-10-17T18:03:57;21.00;74.10
68922;DHT22;55959;51.244;5.724;2022-10-17T18:06:24;21.00;74.10
68922;DHT22;55959;51.244;5.724;2022-10-17T18:08:52;21.00;74.20
68922;DHT22;55959;51.244;5.724;2022-10-17T18:11:20;21.00;74.20
68922;DHT22;55959;51.244;5.724;2022-10-17T18:13:46;20.90;74.00
68922;DHT22;55959;51.244;5.724;2022-10-17T18:16:12;20.90;74.10